sensor_id;sensor_type;location;lat;lon;timestamp;temperature;humidity
43143;DHT22;28750;59.842;17.584;2022-08-30T00:02:11;10.30;99.90
43143;DHT22;28750;59.842;17.584;2022-08-30T00:04:38;10.30;99.90
43143;DHT22;28750;59.842;17.584;2022-08-30T00:07:05;10.20;99.90
43143;DHT22;28750;59.842;17.584;2022-08-30T00:09:32;10.20;99.90
43143;DHT22;28750;59.842;17.584;2022-08-30T00:11:59;10.20;99.90
43143;DHT22;28750;59.842;17.584;2022-08-30T00:14:26;10.20;99.90
43143;DHT22;28750;59.842;17.584;2022-08-30T00:16:53;10.20;99.90
43143;DHT22;28750;59.842;17.584;2022-08-30T00:19:20;10.20;99.90
43143;DHT22;28750;59.842;17.584;2022-08-30T00:21:47;10.20;99.90
43143;DHT22;28750;59.842;17.584;2022-08-30T00:24:14;10.20;99.90
43143;DHT22;28750;59.842;17.584;2022-08-30T00:26:41;10.20;99.90
43143;DHT22;28750;59.842;17.584;2022-08-30T00:29:09;10.20;99.90
43143;DHT22;28750;59.842;17.584;2022-08-30T00:31:35;10.10;99.90
43143;DHT22;28750;59.842;17.584;2022-08-30T00:34:03;10.20;99.90
43143;DHT22;28750;59.842;17.584;2022-08-30T00:36:31;10.10;99.90
43143;DHT22;28750;59.842;17.584;2022-08-30T00:38:58;10.20;99.90
43143;DHT22;28750;59.842;17.584;2022-08-30T00:41:25;10.20;99.90
43143;DHT22;28750;59.842;17.584;2022-08-30T00:43:52;10.10;99.90
43143;DHT22;28750;59.842;17.584;2022-08-30T00:46:19;10.20;99.90
43143;DHT22;28750;59.842;17.584;2022-08-30T00:48:48;10.10;99.90
43143;DHT22;28750;59.842;17.584;2022-08-30T00:51:16;10.10;99.90
43143;DHT22;28750;59.842;17.584;2022-08-30T00:53:48;10.10;99.90
43143;DHT22;28750;59.842;17.584;2022-08-30T00:56:17;10.10;99.90
43143;DHT22;28750;59.842;17.584;2022-08-30T00:58:51;10.10;99.90
43143;DHT22;28750;59.842;17.584;2022-08-30T01:01:19;10.00;99.90
43143;DHT22;28750;59.842;17.584;2022-08-30T01:03:47;10.00;99.90
43143;DHT22;28750;59.842;17.584;2022-08-30T01:06:14;10.00;99.90
43143;DHT22;28750;59.842;17.584;2022-08-30T01:08:43;10.00;99.90
43143;DHT22;28750;59.842;17.584;2022-08-30T01:11:10;10.10;99.90
43143;DHT22;28750;59.842;17.584;2022-08-30T01:13:38;10.00;99.90
43143;DHT22;28750;59.842;17.584;2022-08-30T01:16:06;10.00;99.90
43143;DHT22;28750;59.842;17.584;2022-08-30T01:18:34;10.00;99.90
43143;DHT22;28750;59.842;17.584;2022-08-30T01:23:36;10.00;99.90
43143;DHT22;28750;59.842;17.584;2022-08-30T01:26:05;10.00;99.90
43143;DHT22;28750;59.842;17.584;2022-08-30T01:28:33;9.90;99.90
43143;DHT22;28750;59.842;17.584;2022-08-30T01:31:00;9.90;99.90
43143;DHT22;28750;59.842;17.584;2022-08-30T01:33:27;9.90;99.90
43143;DHT22;28750;59.842;17.584;2022-08-30T01:35:58;9.90;99.90
43143;DHT22;28750;59.842;17.584;2022-08-30T01:38:33;9.90;99.90
43143;DHT22;28750;59.842;17.584;2022-08-30T01:43:44;9.90;99.90
43143;DHT22;28750;59.842;17.584;2022-08-30T01:46:13;9.90;99.90
43143;DHT22;28750;59.842;17.584;2022-08-30T01:48:41;9.80;99.90
43143;DHT22;28750;59.842;17.584;2022-08-30T01:51:13;9.80;99.90
43143;DHT22;28750;59.842;17.584;2022-08-30T01:53:42;9.80;99.90
43143;DHT22;28750;59.842;17.584;2022-08-30T01:56:10;9.90;99.90
43143;DHT22;28750;59.842;17.584;2022-08-30T01:58:38;9.80;99.90
43143;DHT22;28750;59.842;17.584;2022-08-30T02:01:09;9.80;99.90
43143;DHT22;28750;59.842;17.584;2022-08-30T02:03:38;9.70;99.90
43143;DHT22;28750;59.842;17.584;2022-08-30T02:06:07;9.80;99.90
43143;DHT22;28750;59.842;17.584;2022-08-30T02:08:36;9.80;99.90
43143;DHT22;28750;59.842;17.584;2022-08-30T02:11:05;9.80;99.90
43143;DHT22;28750;59.842;17.584;2022-08-30T02:13:32;9.80;99.90
43143;DHT22;28750;59.842;17.584;2022-08-30T02:15:59;9.80;99.90
43143;DHT22;28750;59.842;17.584;2022-08-30T02:18:26;9.80;99.90
43143;DHT22;28750;59.842;17.584;2022-08-30T02:20:53;9.80;99.90
43143;DHT22;28750;59.842;17.584;2022-08-30T02:23:20;9.80;99.90
43143;DHT22;28750;59.842;17.584;2022-08-30T02:25:47;9.70;99.90
43143;DHT22;28750;59.842;17.584;2022-08-30T02:28:14;9.80;99.90
43143;DHT22;28750;59.842;17.584;2022-08-30T02:30:42;9.80;99.90
43143;DHT22;28750;59.842;17.584;2022-08-30T02:33:09;9.70;99.90
43143;DHT22;28750;59.842;17.584;2022-08-30T02:35:36;9.80;99.90
43143;DHT22;28750;59.842;17.584;2022-08-30T02:38:03;9.70;99.90
43143;DHT22;28750;59.842;17.584;2022-08-30T02:40:30;9.80;99.90
43143;DHT22;28750;59.842;17.584;2022-08-30T02:42:57;9.70;99.90
43143;DHT22;28750;59.842;17.584;2022-08-30T02:45:24;9.80;99.90
43143;DHT22;28750;59.842;17.584;2022-08-30T02:47:52;9.80;99.90
43143;DHT22;28750;59.842;17.584;2022-08-30T02:50:21;9.80;99.90
43143;DHT22;28750;59.842;17.584;2022-08-30T02:52:48;9.80;99.90
43143;DHT22;28750;59.842;17.584;2022-08-30T02:55:15;9.80;99.90
43143;DHT22;28750;59.842;17.584;2022-08-30T02:57:42;9.80;99.90
43143;DHT22;28750;59.842;17.584;2022-08-30T03:00:12;9.80;99.90
43143;DHT22;28750;59.842;17.584;2022-08-30T03:02:40;9.80;99.90
43143;DHT22;28750;59.842;17.584;2022-08-30T03:05:08;9.80;99.90
43143;DHT22;28750;59.842;17.584;2022-08-30T03:07:38;9.70;99.90
43143;DHT22;28750;59.842;17.584;2022-08-30T03:10:06;9.70;99.90
43143;DHT22;28750;59.842;17.584;2022-08-30T03:12:33;9.70;99.90
43143;DHT22;28750;59.842;17.584;2022-08-30T03:15:00;9.70;99.90
43143;DHT22;28750;59.842;17.584;2022-08-30T03:17:27;9.70;99.90
43143;DHT22;28750;59.842;17.584;2022-08-30T03:19:56;9.70;99.90
43143;DHT22;28750;59.842;17.584;2022-08-30T03:22:23;9.70;99.90
43143;DHT22;28750;59.842;17.584;2022-08-30T03:24:50;9.60;99.90
43143;DHT22;28750;59.842;17.584;2022-08-30T03:27:17;9.70;99.90
43143;DHT22;28750;59.842;17.584;2022-08-30T03:29:44;9.70;99.90
43143;DHT22;28750;59.842;17.584;2022-08-30T03:32:11;9.70;99.90
43143;DHT22;28750;59.842;17.584;2022-08-30T03:34:38;9.70;99.90
43143;DHT22;28750;59.842;17.584;2022-08-30T03:37:05;9.70;99.90
43143;DHT22;28750;59.842;17.584;2022-08-30T03:39:32;9.70;99.90
43143;DHT22;28750;59.842;17.584;2022-08-30T03:41:59;9.70;99.90
43143;DHT22;28750;59.842;17.584;2022-08-30T03:44:26;9.70;99.90
43143;DHT22;28750;59.842;17.584;2022-08-30T03:46:53;9.60;99.90
43143;DHT22;28750;59.842;17.584;2022-08-30T03:49:20;9.60;99.90
43143;DHT22;28750;59.842;17.584;2022-08-30T03:51:49;9.60;99.90
43143;DHT22;28750;59.842;17.584;2022-08-30T03:54:16;9.70;99.90
43143;DHT22;28750;59.842;17.584;2022-08-30T03:56:43;9.70;99.90
43143;DHT22;28750;59.842;17.584;2022-08-30T03:59:10;9.70;99.90
43143;DHT22;28750;59.842;17.584;2022-08-30T04:01:37;9.80;99.90
43143;DHT22;28750;59.842;17.584;2022-08-30T04:04:07;9.70;99.90
43143;DHT22;28750;59.842;17.584;2022-08-30T04:06:34;9.90;99.90
43143;DHT22;28750;59.842;17.584;2022-08-30T04:09:01;9.90;99.90
43143;DHT22;28750;59.842;17.584;2022-08-30T04:11:28;9.90;99.90
43143;DHT22;28750;59.842;17.584;2022-08-30T04:13:54;10.00;99.90
43143;DHT22;28750;59.842;17.584;2022-08-30T04:16:23;10.10;99.90
43143;DHT22;28750;59.842;17.584;2022-08-30T04:18:51;10.20;99.90
43143;DHT22;28750;59.842;17.584;2022-08-30T04:21:18;10.20;99.90
43143;DHT22;28750;59.842;17.584;2022-08-30T04:23:45;10.30;99.90
43143;DHT22;28750;59.842;17.584;2022-08-30T04:26:12;10.40;99.90
43143;DHT22;28750;59.842;17.584;2022-08-30T04:28:39;10.50;99.90
43143;DHT22;28750;59.842;17.584;2022-08-30T04:31:12;10.50;99.90
43143;DHT22;28750;59.842;17.584;2022-08-30T04:33:39;10.60;99.90
43143;DHT22;28750;59.842;17.584;2022-08-30T04:36:08;10.60;99.90
43143;DHT22;28750;59.842;17.584;2022-08-30T04:38:36;10.70;99.90
43143;DHT22;28750;59.842;17.584;2022-08-30T04:41:17;10.90;99.90
43143;DHT22;28750;59.842;17.584;2022-08-30T04:43:45;10.90;99.90
43143;DHT22;28750;59.842;17.584;2022-08-30T04:46:15;11.00;99.90
43143;DHT22;28750;59.842;17.584;2022-08-30T04:48:42;11.10;99.90
43143;DHT22;28750;59.842;17.584;2022-08-30T04:51:11;11.20;99.90
43143;DHT22;28750;59.842;17.584;2022-08-30T04:53:40;11.30;99.90
43143;DHT22;28750;59.842;17.584;2022-08-30T04:56:10;11.50;99.90
43143;DHT22;28750;59.842;17.584;2022-08-30T04:58:38;11.60;99.90
43143;DHT22;28750;59.842;17.584;2022-08-30T05:01:14;11.60;99.90
43143;DHT22;28750;59.842;17.584;2022-08-30T05:03:41;11.70;99.90
43143;DHT22;28750;59.842;17.584;2022-08-30T05:06:10;11.80;99.90
43143;DHT22;28750;59.842;17.584;2022-08-30T05:08:38;11.90;99.90
43143;DHT22;28750;59.842;17.584;2022-08-30T05:11:06;12.00;99.90
43143;DHT22;28750;59.842;17.584;2022-08-30T05:13:35;12.20;99.90
43143;DHT22;28750;59.842;17.584;2022-08-30T05:16:04;12.20;99.90
43143;DHT22;28750;59.842;17.584;2022-08-30T05:18:32;12.30;99.90
43143;DHT22;28750;59.842;17.584;2022-08-30T05:21:08;12.40;99.90
43143;DHT22;28750;59.842;17.584;2022-08-30T05:23:37;12.60;99.90
43143;DHT22;28750;59.842;17.584;2022-08-30T05:26:07;12.60;99.90
43143;DHT22;28750;59.842;17.584;2022-08-30T05:28:35;12.70;99.90
43143;DHT22;28750;59.842;17.584;2022-08-30T05:31:09;12.70;99.90
43143;DHT22;28750;59.842;17.584;2022-08-30T05:33:37;12.60;99.90
43143;DHT22;28750;59.842;17.584;2022-08-30T05:36:08;12.80;99.90
43143;DHT22;28750;59.842;17.584;2022-08-30T05:38:35;12.80;99.90
43143;DHT22;28750;59.842;17.584;2022-08-30T05:41:03;12.70;99.90
43143;DHT22;28750;59.842;17.584;2022-08-30T05:43:30;12.80;99.90
43143;DHT22;28750;59.842;17.584;2022-08-30T05:46:06;12.70;99.90
43143;DHT22;28750;59.842;17.584;2022-08-30T05:48:34;12.90;99.90
43143;DHT22;28750;59.842;17.584;2022-08-30T05:51:25;12.70;99.90
43143;DHT22;28750;59.842;17.584;2022-08-30T05:53:52;12.70;99.90
43143;DHT22;28750;59.842;17.584;2022-08-30T05:56:21;12.70;99.90
43143;DHT22;28750;59.842;17.584;2022-08-30T05:58:49;12.60;99.90
43143;DHT22;28750;59.842;17.584;2022-08-30T06:01:33;12.70;99.90
43143;DHT22;28750;59.842;17.584;2022-08-30T06:04:02;12.70;99.90
43143;DHT22;28750;59.842;17.584;2022-08-30T06:06:31;12.60;99.90
43143;DHT22;28750;59.842;17.584;2022-08-30T06:09:00;12.50;99.90
43143;DHT22;28750;59.842;17.584;2022-08-30T06:11:27;12.60;99.90
43143;DHT22;28750;59.842;17.584;2022-08-30T06:13:55;12.60;99.90
43143;DHT22;28750;59.842;17.584;2022-08-30T06:16:24;12.90;99.90
43143;DHT22;28750;59.842;17.584;2022-08-30T06:18:53;12.80;99.90
43143;DHT22;28750;59.842;17.584;2022-08-30T06:21:26;13.00;99.90
43143;DHT22;28750;59.842;17.584;2022-08-30T06:23:55;13.60;99.90
43143;DHT22;28750;59.842;17.584;2022-08-30T06:26:22;14.00;99.90
43143;DHT22;28750;59.842;17.584;2022-08-30T06:28:50;14.10;99.90
43143;DHT22;28750;59.842;17.584;2022-08-30T06:31:18;14.20;99.90
43143;DHT22;28750;59.842;17.584;2022-08-30T06:33:46;14.00;99.90
43143;DHT22;28750;59.842;17.584;2022-08-30T06:36:19;13.60;99.90
43143;DHT22;28750;59.842;17.584;2022-08-30T06:38:48;13.30;99.90
43143;DHT22;28750;59.842;17.584;2022-08-30T06:41:18;13.40;99.90
43143;DHT22;28750;59.842;17.584;2022-08-30T06:43:46;13.50;99.90
43143;DHT22;28750;59.842;17.584;2022-08-30T06:46:18;13.50;99.90
43143;DHT22;28750;59.842;17.584;2022-08-30T06:48:46;13.60;99.90
43143;DHT22;28750;59.842;17.584;2022-08-30T06:51:13;13.70;99.90
43143;DHT22;28750;59.842;17.584;2022-08-30T06:53:40;13.70;99.90
43143;DHT22;28750;59.842;17.584;2022-08-30T06:56:09;13.90;99.90
43143;DHT22;28750;59.842;17.584;2022-08-30T06:58:38;13.80;99.90
43143;DHT22;28750;59.842;17.584;2022-08-30T07:01:09;13.80;99.90
43143;DHT22;28750;59.842;17.584;2022-08-30T07:03:37;13.60;99.90
43143;DHT22;28750;59.842;17.584;2022-08-30T07:06:05;13.70;99.90
43143;DHT22;28750;59.842;17.584;2022-08-30T07:08:33;13.70;99.90
43143;DHT22;28750;59.842;17.584;2022-08-30T07:11:00;13.60;99.90
43143;DHT22;28750;59.842;17.584;2022-08-30T07:13:28;13.50;99.90
43143;DHT22;28750;59.842;17.584;2022-08-30T07:15:56;13.40;99.90
43143;DHT22;28750;59.842;17.584;2022-08-30T07:18:23;13.40;99.90
43143;DHT22;28750;59.842;17.584;2022-08-30T07:21:14;13.60;99.90
43143;DHT22;28750;59.842;17.584;2022-08-30T07:23:42;14.10;99.90
43143;DHT22;28750;59.842;17.584;2022-08-30T07:26:11;14.60;99.90
43143;DHT22;28750;59.842;17.584;2022-08-30T07:28:41;14.80;99.90
43143;DHT22;28750;59.842;17.584;2022-08-30T07:31:09;14.70;99.90
43143;DHT22;28750;59.842;17.584;2022-08-30T07:33:37;14.80;99.90
43143;DHT22;28750;59.842;17.584;2022-08-30T07:36:05;14.90;99.90
43143;DHT22;28750;59.842;17.584;2022-08-30T07:38:32;15.20;99.90
43143;DHT22;28750;59.842;17.584;2022-08-30T07:40:59;15.40;74.30
43143;DHT22;28750;59.842;17.584;2022-08-30T07:43:27;15.70;36.40
43143;DHT22;28750;59.842;17.584;2022-08-30T07:45:59;15.80;1.00
43143;DHT22;28750;59.842;17.584;2022-08-30T07:48:26;16.00;1.00
43143;DHT22;28750;59.842;17.584;2022-08-30T07:50:53;16.30;1.00
43143;DHT22;28750;59.842;17.584;2022-08-30T07:53:20;16.40;99.90
43143;DHT22;28750;59.842;17.584;2022-08-30T07:55:46;16.60;99.90
43143;DHT22;28750;59.842;17.584;2022-08-30T07:58:13;16.60;99.90
43143;DHT22;28750;59.842;17.584;2022-08-30T08:00:40;17.00;99.90
43143;DHT22;28750;59.842;17.584;2022-08-30T08:03:09;17.20;99.90
43143;DHT22;28750;59.842;17.584;2022-08-30T08:05:38;17.10;99.90
43143;DHT22;28750;59.842;17.584;2022-08-30T08:08:05;17.50;1.00
43143;DHT22;28750;59.842;17.584;2022-08-30T08:10:35;17.50;1.00
43143;DHT22;28750;59.842;17.584;2022-08-30T08:13:03;16.70;99.90
43143;DHT22;28750;59.842;17.584;2022-08-30T08:15:30;16.30;99.90
43143;DHT22;28750;59.842;17.584;2022-08-30T08:17:58;16.00;99.90
43143;DHT22;28750;59.842;17.584;2022-08-30T08:20:26;15.80;1.00
43143;DHT22;28750;59.842;17.584;2022-08-30T08:22:53;15.70;1.00
43143;DHT22;28750;59.842;17.584;2022-08-30T08:25:20;15.60;1.00
43143;DHT22;28750;59.842;17.584;2022-08-30T08:27:49;15.40;1.00
43143;DHT22;28750;59.842;17.584;2022-08-30T08:30:20;15.50;1.00
43143;DHT22;28750;59.842;17.584;2022-08-30T08:32:50;16.10;1.00
43143;DHT22;28750;59.842;17.584;2022-08-30T08:35:18;16.60;1.00
43143;DHT22;28750;59.842;17.584;2022-08-30T08:37:45;16.50;99.90
43143;DHT22;28750;59.842;17.584;2022-08-30T08:40:16;16.60;99.90
43143;DHT22;28750;59.842;17.584;2022-08-30T08:42:55;16.30;99.90
43143;DHT22;28750;59.842;17.584;2022-08-30T08:45:56;16.40;99.90
43143;DHT22;28750;59.842;17.584;2022-08-30T08:51:01;16.00;1.00
43143;DHT22;28750;59.842;17.584;2022-08-30T08:56:47;17.00;99.90
43143;DHT22;28750;59.842;17.584;2022-08-30T08:59:15;16.80;99.90
43143;DHT22;28750;59.842;17.584;2022-08-30T09:01:42;16.60;99.90
43143;DHT22;28750;59.842;17.584;2022-08-30T09:04:36;16.50;99.90
43143;DHT22;28750;59.842;17.584;2022-08-30T09:07:06;16.40;99.90
43143;DHT22;28750;59.842;17.584;2022-08-30T09:09:38;16.40;99.90
43143;DHT22;28750;59.842;17.584;2022-08-30T09:12:08;16.50;99.90
43143;DHT22;28750;59.842;17.584;2022-08-30T09:14:39;16.40;99.90
43143;DHT22;28750;59.842;17.584;2022-08-30T09:17:10;16.60;99.90
43143;DHT22;28750;59.842;17.584;2022-08-30T09:19:41;16.60;99.90
43143;DHT22;28750;59.842;17.584;2022-08-30T09:27:42;16.10;1.00
43143;DHT22;28750;59.842;17.584;2022-08-30T09:30:28;15.60;1.00
43143;DHT22;28750;59.842;17.584;2022-08-30T09:33:01;15.30;38.80
43143;DHT22;28750;59.842;17.584;2022-08-30T09:35:39;15.10;99.90
43143;DHT22;28750;59.842;17.584;2022-08-30T09:38:09;15.10;99.90
43143;DHT22;28750;59.842;17.584;2022-08-30T09:48:27;14.90;99.90
43143;DHT22;28750;59.842;17.584;2022-08-30T09:54:13;14.90;99.90
43143;DHT22;28750;59.842;17.584;2022-08-30T09:59:56;14.70;99.90
43143;DHT22;28750;59.842;17.584;2022-08-30T10:11:07;14.90;99.90
43143;DHT22;28750;59.842;17.584;2022-08-30T10:13:36;14.90;99.90
43143;DHT22;28750;59.842;17.584;2022-08-30T10:19:22;15.10;99.90
43143;DHT22;28750;59.842;17.584;2022-08-30T10:22:27;15.30;99.90
43143;DHT22;28750;59.842;17.584;2022-08-30T10:25:22;15.50;99.90
43143;DHT22;28750;59.842;17.584;2022-08-30T10:30:32;16.10;99.90
43143;DHT22;28750;59.842;17.584;2022-08-30T10:33:27;16.10;99.90
43143;DHT22;28750;59.842;17.584;2022-08-30T10:35:59;16.20;99.90
43143;DHT22;28750;59.842;17.584;2022-08-30T10:38:34;15.90;99.90
43143;DHT22;28750;59.842;17.584;2022-08-30T10:41:27;15.50;99.90
43143;DHT22;28750;59.842;17.584;2022-08-30T10:49:37;15.00;99.90
43143;DHT22;28750;59.842;17.584;2022-08-30T10:54:54;15.00;99.90
43143;DHT22;28750;59.842;17.584;2022-08-30T10:57:24;15.00;99.90
43143;DHT22;28750;59.842;17.584;2022-08-30T10:59:58;15.10;99.90
43143;DHT22;28750;59.842;17.584;2022-08-30T11:05:37;15.50;99.90
43143;DHT22;28750;59.842;17.584;2022-08-30T11:13:46;15.70;99.90
43143;DHT22;28750;59.842;17.584;2022-08-30T11:16:16;15.80;99.90
43143;DHT22;28750;59.842;17.584;2022-08-30T11:21:35;15.70;96.00
43143;DHT22;28750;59.842;17.584;2022-08-30T11:24:08;15.20;99.90
43143;DHT22;28750;59.842;17.584;2022-08-30T11:29:37;14.40;99.90
43143;DHT22;28750;59.842;17.584;2022-08-30T11:39:52;14.10;99.90
43143;DHT22;28750;59.842;17.584;2022-08-30T11:42:37;14.30;99.90
43143;DHT22;28750;59.842;17.584;2022-08-30T11:47:58;14.50;99.90
43143;DHT22;28750;59.842;17.584;2022-08-30T11:50:46;14.90;99.90
43143;DHT22;28750;59.842;17.584;2022-08-30T11:59:30;15.40;99.90
43143;DHT22;28750;59.842;17.584;2022-08-30T12:01:59;16.00;99.90
43143;DHT22;28750;59.842;17.584;2022-08-30T12:04:43;16.50;99.90
43143;DHT22;28750;59.842;17.584;2022-08-30T12:07:54;16.40;53.10
43143;DHT22;28750;59.842;17.584;2022-08-30T12:09:59;16.20;32.30
43143;DHT22;28750;59.842;17.584;2022-08-30T12:15:03;16.00;48.80
43143;DHT22;28750;59.842;17.584;2022-08-30T12:17:54;15.90;81.50
43143;DHT22;28750;59.842;17.584;2022-08-30T12:20:45;16.00;78.60
43143;DHT22;28750;59.842;17.584;2022-08-30T12:23:20;16.00;90.80
43143;DHT22;28750;59.842;17.584;2022-08-30T12:26:18;16.30;99.40
43143;DHT22;28750;59.842;17.584;2022-08-30T12:28:47;16.50;84.40
43143;DHT22;28750;59.842;17.584;2022-08-30T12:31:25;16.50;66.90
43143;DHT22;28750;59.842;17.584;2022-08-30T12:33:55;16.50;68.20
43143;DHT22;28750;59.842;17.584;2022-08-30T12:36:34;16.60;73.60
43143;DHT22;28750;59.842;17.584;2022-08-30T12:39:16;16.90;1.00
43143;DHT22;28750;59.842;17.584;2022-08-30T12:41:44;17.10;1.00
43143;DHT22;28750;59.842;17.584;2022-08-30T12:44:25;16.70;1.00
43143;DHT22;28750;59.842;17.584;2022-08-30T12:46:57;16.70;1.00
43143;DHT22;28750;59.842;17.584;2022-08-30T12:49:28;16.60;1.00
43143;DHT22;28750;59.842;17.584;2022-08-30T12:52:13;16.70;1.00
43143;DHT22;28750;59.842;17.584;2022-08-30T12:54:41;16.90;1.00
43143;DHT22;28750;59.842;17.584;2022-08-30T12:57:09;16.90;1.00
43143;DHT22;28750;59.842;17.584;2022-08-30T12:59:52;17.20;99.90
43143;DHT22;28750;59.842;17.584;2022-08-30T13:02:25;17.10;1.00
43143;DHT22;28750;59.842;17.584;2022-08-30T13:04:54;17.30;99.90
43143;DHT22;28750;59.842;17.584;2022-08-30T13:07:32;17.20;99.90
43143;DHT22;28750;59.842;17.584;2022-08-30T13:10:22;17.20;99.90
43143;DHT22;28750;59.842;17.584;2022-08-30T13:13:05;17.60;99.90
43143;DHT22;28750;59.842;17.584;2022-08-30T13:15:34;17.70;99.90
43143;DHT22;28750;59.842;17.584;2022-08-30T13:20:45;17.70;99.90
43143;DHT22;28750;59.842;17.584;2022-08-30T13:23:21;17.50;28.40
43143;DHT22;28750;59.842;17.584;2022-08-30T13:25:49;17.20;99.90
43143;DHT22;28750;59.842;17.584;2022-08-30T13:28:16;17.10;99.90
43143;DHT22;28750;59.842;17.584;2022-08-30T13:30:45;17.00;99.90
43143;DHT22;28750;59.842;17.584;2022-08-30T13:33:12;17.00;99.90
43143;DHT22;28750;59.842;17.584;2022-08-30T13:35:41;17.00;99.90
43143;DHT22;28750;59.842;17.584;2022-08-30T13:38:08;16.90;99.90
43143;DHT22;28750;59.842;17.584;2022-08-30T13:40:35;16.90;99.90
43143;DHT22;28750;59.842;17.584;2022-08-30T13:43:01;17.00;1.00
43143;DHT22;28750;59.842;17.584;2022-08-30T13:45:28;16.80;99.90
43143;DHT22;28750;59.842;17.584;2022-08-30T13:47:55;16.60;99.90
43143;DHT22;28750;59.842;17.584;2022-08-30T13:50:22;16.60;1.00
43143;DHT22;28750;59.842;17.584;2022-08-30T13:52:49;16.60;1.00
43143;DHT22;28750;59.842;17.584;2022-08-30T13:55:16;16.50;1.00
43143;DHT22;28750;59.842;17.584;2022-08-30T13:57:43;16.50;1.00
43143;DHT22;28750;59.842;17.584;2022-08-30T14:00:14;16.60;1.00
43143;DHT22;28750;59.842;17.584;2022-08-30T14:02:44;16.60;1.00
43143;DHT22;28750;59.842;17.584;2022-08-30T14:05:11;16.50;99.90
43143;DHT22;28750;59.842;17.584;2022-08-30T14:07:37;16.60;1.00
43143;DHT22;28750;59.842;17.584;2022-08-30T14:10:06;16.80;1.00
43143;DHT22;28750;59.842;17.584;2022-08-30T14:12:33;17.10;1.00
43143;DHT22;28750;59.842;17.584;2022-08-30T14:15:00;17.00;99.90
43143;DHT22;28750;59.842;17.584;2022-08-30T14:17:27;17.00;1.00
43143;DHT22;28750;59.842;17.584;2022-08-30T14:19:57;16.60;99.90
43143;DHT22;28750;59.842;17.584;2022-08-30T14:22:24;16.80;99.90
43143;DHT22;28750;59.842;17.584;2022-08-30T14:24:51;17.00;99.90
43143;DHT22;28750;59.842;17.584;2022-08-30T14:27:19;17.10;99.90
43143;DHT22;28750;59.842;17.584;2022-08-30T14:29:47;16.70;99.90
43143;DHT22;28750;59.842;17.584;2022-08-30T14:32:14;16.60;99.90
43143;DHT22;28750;59.842;17.584;2022-08-30T14:34:41;16.60;99.90
43143;DHT22;28750;59.842;17.584;2022-08-30T14:37:09;16.40;99.90
43143;DHT22;28750;59.842;17.584;2022-08-30T14:39:36;16.30;99.90
43143;DHT22;28750;59.842;17.584;2022-08-30T14:42:03;16.30;99.90
43143;DHT22;28750;59.842;17.584;2022-08-30T14:44:30;16.10;99.90
43143;DHT22;28750;59.842;17.584;2022-08-30T14:46:58;16.10;99.90
43143;DHT22;28750;59.842;17.584;2022-08-30T14:49:25;16.00;99.90
43143;DHT22;28750;59.842;17.584;2022-08-30T14:51:52;15.70;1.00
43143;DHT22;28750;59.842;17.584;2022-08-30T14:54:23;15.60;1.00
43143;DHT22;28750;59.842;17.584;2022-08-30T14:56:51;15.70;1.00
43143;DHT22;28750;59.842;17.584;2022-08-30T14:59:18;15.80;1.00
43143;DHT22;28750;59.842;17.584;2022-08-30T15:01:45;16.00;1.00
43143;DHT22;28750;59.842;17.584;2022-08-30T15:04:13;15.90;1.00
43143;DHT22;28750;59.842;17.584;2022-08-30T15:06:42;15.90;99.90
43143;DHT22;28750;59.842;17.584;2022-08-30T15:09:12;15.90;99.90
43143;DHT22;28750;59.842;17.584;2022-08-30T15:11:39;16.00;99.90
43143;DHT22;28750;59.842;17.584;2022-08-30T15:14:08;16.10;99.90
43143;DHT22;28750;59.842;17.584;2022-08-30T15:16:37;16.20;1.00
43143;DHT22;28750;59.842;17.584;2022-08-30T15:19:06;16.30;1.00
43143;DHT22;28750;59.842;17.584;2022-08-30T15:21:45;16.60;1.00
43143;DHT22;28750;59.842;17.584;2022-08-30T15:24:18;16.60;1.00
43143;DHT22;28750;59.842;17.584;2022-08-30T15:26:46;16.50;99.90
43143;DHT22;28750;59.842;17.584;2022-08-30T15:29:15;16.50;99.90
43143;DHT22;28750;59.842;17.584;2022-08-30T15:31:43;16.50;99.90
43143;DHT22;28750;59.842;17.584;2022-08-30T15:34:13;16.60;99.90
43143;DHT22;28750;59.842;17.584;2022-08-30T15:36:42;16.60;89.60
43143;DHT22;28750;59.842;17.584;2022-08-30T15:39:10;16.40;62.00
43143;DHT22;28750;59.842;17.584;2022-08-30T15:41:38;16.20;99.90
43143;DHT22;28750;59.842;17.584;2022-08-30T15:44:06;16.00;99.90
43143;DHT22;28750;59.842;17.584;2022-08-30T15:46:36;16.00;99.90
43143;DHT22;28750;59.842;17.584;2022-08-30T15:49:07;15.80;99.90
43143;DHT22;28750;59.842;17.584;2022-08-30T15:51:36;15.70;99.90
43143;DHT22;28750;59.842;17.584;2022-08-30T15:54:05;15.60;99.90
43143;DHT22;28750;59.842;17.584;2022-08-30T15:56:33;15.70;1.00
43143;DHT22;28750;59.842;17.584;2022-08-30T15:59:03;15.50;31.40
43143;DHT22;28750;59.842;17.584;2022-08-30T16:01:32;15.50;85.60
43143;DHT22;28750;59.842;17.584;2022-08-30T16:03:59;15.60;85.90
43143;DHT22;28750;59.842;17.584;2022-08-30T16:06:30;15.60;99.90
43143;DHT22;28750;59.842;17.584;2022-08-30T16:08:59;15.50;99.90
43143;DHT22;28750;59.842;17.584;2022-08-30T16:11:28;15.40;99.90
43143;DHT22;28750;59.842;17.584;2022-08-30T16:13:55;15.40;99.90
43143;DHT22;28750;59.842;17.584;2022-08-30T16:16:24;15.40;10.60
43143;DHT22;28750;59.842;17.584;2022-08-30T16:18:52;15.40;6.70
43143;DHT22;28750;59.842;17.584;2022-08-30T16:21:29;15.40;78.50
43143;DHT22;28750;59.842;17.584;2022-08-30T16:23:59;15.40;99.90
43143;DHT22;28750;59.842;17.584;2022-08-30T16:26:28;15.40;99.90
43143;DHT22;28750;59.842;17.584;2022-08-30T16:28:56;15.40;99.90
43143;DHT22;28750;59.842;17.584;2022-08-30T16:31:24;15.40;99.90
43143;DHT22;28750;59.842;17.584;2022-08-30T16:33:52;15.30;99.90
43143;DHT22;28750;59.842;17.584;2022-08-30T16:36:21;15.20;1.00
43143;DHT22;28750;59.842;17.584;2022-08-30T16:38:49;15.00;99.90
43143;DHT22;28750;59.842;17.584;2022-08-30T16:41:16;14.90;99.90
43143;DHT22;28750;59.842;17.584;2022-08-30T16:43:44;14.90;99.90
43143;DHT22;28750;59.842;17.584;2022-08-30T16:46:14;14.80;31.50
43143;DHT22;28750;59.842;17.584;2022-08-30T16:48:44;14.80;52.10
43143;DHT22;28750;59.842;17.584;2022-08-30T16:51:17;14.90;36.20
43143;DHT22;28750;59.842;17.584;2022-08-30T16:53:45;14.90;25.60
43143;DHT22;28750;59.842;17.584;2022-08-30T16:56:15;14.90;99.90
43143;DHT22;28750;59.842;17.584;2022-08-30T16:58:43;14.90;96.10
43143;DHT22;28750;59.842;17.584;2022-08-30T17:01:10;14.90;99.90
43143;DHT22;28750;59.842;17.584;2022-08-30T17:03:38;14.80;99.90
43143;DHT22;28750;59.842;17.584;2022-08-30T17:06:06;14.90;99.90
43143;DHT22;28750;59.842;17.584;2022-08-30T17:08:33;14.80;99.90